Ashford, WA

2:41 PM PST on February 26, 2017 (GMT -0800)
Paradise Estates | | Change Station
Active Advisory: Winter Weather Advisory

Elev 1722 ft 46.73 °N, 122.01 °W | Updated 32 seconds ago

Snow
Snow
33.6 °F
Feels Like 34 °F
N
0.0
Wind Variable Wind from ENE
Gusts 0.0 mph

Today
High -- | Low -- °F
--% Chance of Precip.
Yesterday
High -- | Low -- °F
Precip. -- in
Pressure 29.68 in
Visibility 5.0 miles
Clouds
Windchill 34 °F
Dew Point 32 °F
Humidity 94%
Rainfall 0.07 in
Snow Depth Not available.
6:52 AM 5:50 PM
New Moon, 0% visible
METAR KPLU 262235Z AUTO 00000KT 5SM -DZ 03/03 A2968 RMK AO2
Pressure 29.68 in
Visibility 5.0 miles
Clouds
Windchill 34 °F
Dew Point 32 °F
Humidity 94%
Rainfall 0.07 in
Snow Depth Not available.
6:52 AM 5:50 PM
New Moon, 0% visible
METAR KPLU 262235Z AUTO 00000KT 5SM -DZ 03/03 A2968 RMK AO2

Get Your Daily Forecast Email!

Thanks for signing up!

Be on the lookout for a verification email in your inbox.

You'll start receiving the daily forecast at 8 AM.

×

10-Day Weather Forecast

Almanac

Astronomy

Feb. 26, 2017 Rise Set
Actual Time
Civil Twilight
Nautical Twilight
Astronomical Twilight
Moon
Length of Visible Light
Length of Day
Tomorrow will be .
, % of the Moon is Illuminated

Today's Extremes

State Highs State Lows

Community

WunderPhotos

Upload Photos

1,962,540 photos uploaded!

WunderBlog® & News

Nearby

Air Quality

  Air Quality AQ Index Pollutant
Not available.

Snow Depth

Station Depth Elevation

Earthquake Activity

City Distance Mag. Time & Date
Minimum magnitude displayed is 2.5.

Coastal Water Temperatures

Place Temperature

Stations

Nearby Weather Stations

Station Location Temp. Windchill Dew Point Humidity Wind Precip. Elev Updated Type
                   

Watches & Warnings

Winter Weather Advisory
Issued: 2:34 PM PST Feb. 26, 2017 – National Weather Service

... Winter Weather Advisory remains in effect until 10 PM PST this
evening...

* some affected locations... White Pass and Paradise.

* Snow accumulations... 2 to 5 additional inches this evening.

* Snow level... near 1000 feet.

* Main impact... snow will cause slippery roads and hazardous
driving conditions.

Precautionary/preparedness actions...

A Winter Weather Advisory for snow means that periods of snow
will cause primarily travel difficulties. Be prepared for snow
covered roads and limited visibilities, and use caution while
driving.



Www.Weather.Gov/Seattle